createdAt,value
2023-04-05T00:00:11.450Z,15.13
2023-04-05T00:04:21.526Z,15.47
2023-04-05T00:08:30.942Z,14.53
2023-04-05T00:12:47.278Z,13.93
2023-04-05T00:16:56.956Z,16.20
2023-04-05T00:21:06.991Z,14.30
2023-04-05T00:25:16.341Z,14.57
2023-04-05T00:29:30.045Z,13.53
2023-04-05T00:33:41.285Z,14.77
2023-04-05T00:37:50.684Z,12.57
2023-04-05T00:42:02.301Z,14.50
2023-04-05T00:46:13.617Z,14.67
2023-04-05T00:50:25.382Z,13.63
2023-04-05T00:54:36.969Z,13.57
2023-04-05T00:58:46.578Z,13.07
2023-04-05T01:03:02.088Z,13.87
2023-04-05T01:07:22.443Z,15.17
2023-04-05T01:11:34.076Z,15.73
2023-04-05T01:15:44.046Z,13.87
2023-04-05T01:19:59.295Z,17.30
2023-04-05T01:24:23.364Z,14.87
2023-04-05T01:28:52.776Z,14.07
2023-04-05T01:33:16.113Z,14.57
2023-04-05T01:37:34.302Z,15.23
2023-04-05T01:41:43.781Z,15.83
2023-04-05T01:45:56.368Z,15.10
2023-04-05T01:50:09.520Z,14.37
2023-04-05T01:54:21.534Z,15.00
2023-04-05T01:58:31.185Z,14.00
2023-04-05T02:02:41.308Z,15.20
2023-04-05T02:06:52.887Z,12.97
2023-04-05T02:11:02.284Z,13.10
2023-04-05T02:15:12.996Z,12.57
2023-04-05T02:19:24.245Z,12.37
2023-04-05T02:23:36.232Z,14.10
2023-04-05T02:27:46.135Z,13.27
2023-04-05T02:31:56.035Z,12.30
2023-04-05T02:36:07.358Z,11.50
2023-04-05T02:40:18.471Z,10.97
2023-04-05T02:44:29.054Z,11.33
2023-04-05T02:48:38.723Z,14.33
2023-04-05T02:52:48.747Z,11.73
2023-04-05T02:57:02.748Z,10.77
2023-04-05T03:01:13.132Z,11.20
2023-04-05T03:05:22.984Z,11.30
2023-04-05T03:09:45.631Z,12.53
2023-04-05T03:14:08.332Z,12.80
2023-04-05T03:18:36.899Z,10.77
2023-04-05T03:22:47.287Z,11.00
2023-04-05T03:26:56.685Z,10.90
2023-04-05T03:31:07.879Z,12.17
2023-04-05T03:35:20.031Z,12.00
2023-04-05T03:39:31.919Z,11.23
2023-04-05T03:43:41.143Z,11.57
2023-04-05T03:47:52.511Z,11.23
2023-04-05T03:52:16.541Z,9.57
2023-04-05T03:56:26.104Z,11.33
2023-04-05T04:00:35.350Z,10.57
2023-04-05T04:04:52.427Z,10.93
2023-04-05T04:09:01.874Z,11.17
2023-04-05T04:13:20.685Z,10.77
2023-04-05T04:17:31.296Z,11.10
2023-04-05T04:21:52.237Z,11.97
2023-04-05T04:26:02.241Z,12.60
2023-04-05T04:30:22.988Z,11.57
2023-04-05T04:34:51.396Z,12.03
2023-04-05T04:39:03.124Z,12.40
2023-04-05T04:43:17.806Z,13.33
2023-04-05T04:47:28.127Z,12.77
2023-04-05T04:51:40.535Z,13.43
2023-04-05T04:55:56.542Z,13.03
2023-04-05T05:00:13.715Z,13.70
2023-04-05T05:04:24.306Z,13.93
2023-04-05T05:08:33.546Z,12.17
2023-04-05T05:12:45.227Z,13.63
2023-04-05T05:16:55.024Z,14.57
2023-04-05T05:21:08.718Z,14.07
2023-04-05T05:25:18.177Z,14.63
2023-04-05T05:29:29.811Z,13.40
2023-04-05T05:33:39.274Z,14.93
2023-04-05T05:37:49.404Z,15.93
2023-04-05T05:41:58.666Z,14.37
2023-04-05T05:46:10.045Z,14.70
2023-04-05T05:50:20.961Z,14.70
2023-04-05T05:54:36.124Z,15.63
2023-04-05T05:58:46.723Z,14.90
2023-04-05T06:03:09.050Z,14.60
2023-04-05T06:07:18.518Z,13.53
2023-04-05T06:11:29.917Z,13.17
2023-04-05T06:15:39.328Z,11.70
2023-04-05T06:19:55.408Z,14.10
2023-04-05T06:24:04.843Z,12.10
2023-04-05T06:28:13.993Z,12.67
2023-04-05T06:32:23.323Z,13.60
2023-04-05T06:36:34.627Z,14.83
2023-04-05T06:40:46.614Z,12.87
2023-04-05T06:49:38.570Z,14.80
2023-04-05T06:53:49.489Z,13.00
2023-04-05T06:57:59.776Z,13.33
2023-04-05T07:02:14.493Z,12.77
2023-04-05T07:06:24.278Z,12.17
2023-04-05T07:10:38.077Z,11.53
2023-04-05T07:14:47.346Z,13.93
2023-04-05T07:18:58.612Z,12.63
2023-04-05T07:23:08.049Z,12.90
2023-04-05T07:27:21.269Z,12.17
2023-04-05T07:31:30.688Z,13.37
2023-04-05T07:35:48.783Z,13.33
2023-04-05T07:40:11.703Z,12.00
2023-04-05T07:44:22.747Z,12.67
2023-04-05T07:48:32.518Z,12.57
2023-04-05T07:52:41.637Z,12.83
2023-04-05T07:56:51.108Z,11.93
2023-04-05T08:01:03.431Z,12.30
2023-04-05T08:05:12.609Z,13.37
2023-04-05T08:09:21.685Z,13.30
2023-04-05T08:13:30.825Z,12.90
2023-04-05T08:17:41.649Z,14.20
2023-04-05T08:21:51.231Z,12.37
2023-04-05T08:26:00.562Z,14.90
2023-04-05T08:30:10.588Z,14.23
2023-04-05T08:34:21.300Z,14.33
2023-04-05T08:42:54.063Z,15.40
2023-04-05T08:47:04.771Z,13.63
2023-04-05T08:51:15.722Z,14.97
2023-04-05T08:55:25.294Z,13.57
2023-04-05T08:59:42.004Z,15.07
2023-04-05T09:03:53.028Z,14.37
2023-04-05T09:08:04.878Z,13.53
2023-04-05T09:12:14.154Z,14.23
2023-04-05T09:16:24.090Z,14.77
2023-04-05T09:20:33.357Z,13.63
2023-04-05T09:24:47.729Z,13.37
2023-04-05T09:28:57.120Z,13.33
2023-04-05T09:33:10.693Z,13.70
2023-04-05T09:37:21.470Z,14.83
2023-04-05T09:41:32.555Z,12.50
2023-04-05T09:45:43.186Z,12.33
2023-04-05T09:50:02.467Z,13.30
2023-04-05T09:54:12.963Z,13.33
2023-04-05T09:58:26.158Z,14.47
2023-04-05T10:02:38.750Z,13.27
2023-04-05T10:06:47.953Z,16.07
2023-04-05T10:11:01.156Z,15.33
2023-04-05T10:15:14.493Z,17.00
2023-04-05T10:19:32.847Z,12.20
2023-04-05T10:23:44.837Z,13.73
2023-04-05T10:27:57.293Z,14.50
2023-04-05T10:32:19.811Z,13.43
2023-04-05T10:36:47.405Z,14.40
2023-04-05T10:41:00.670Z,13.80
2023-04-05T10:45:12.926Z,14.13
2023-04-05T10:49:30.734Z,14.73
2023-04-05T10:53:40.461Z,12.33
2023-04-05T10:57:50.822Z,12.77
2023-04-05T11:02:00.918Z,12.83
2023-04-05T11:06:34.310Z,15.60
2023-04-05T11:10:43.763Z,14.07
2023-04-05T11:14:56.829Z,14.20
2023-04-05T11:19:06.526Z,12.83
2023-04-05T11:23:19.427Z,13.90
2023-04-05T11:27:29.675Z,16.00
2023-04-05T11:31:58.693Z,13.60
2023-04-05T11:36:08.408Z,15.67
2023-04-05T11:40:30.208Z,15.27
2023-04-05T11:44:47.642Z,15.30
2023-04-05T11:48:59.072Z,14.53
2023-04-05T11:53:12.909Z,15.07
2023-04-05T11:57:25.414Z,14.90
2023-04-05T12:01:35.737Z,15.60
2023-04-05T12:05:51.925Z,15.03
2023-04-05T12:10:11.290Z,16.27
2023-04-05T12:14:25.864Z,15.27
2023-04-05T12:18:38.381Z,15.07
2023-04-05T12:22:50.145Z,16.07
2023-04-05T12:27:01.172Z,15.43
2023-04-05T12:31:13.143Z,16.30
2023-04-05T12:35:32.572Z,15.57
2023-04-05T12:39:42.091Z,17.70
2023-04-05T12:43:51.428Z,16.07
2023-04-05T12:48:02.631Z,17.13
2023-04-05T12:52:11.983Z,17.17
2023-04-05T12:56:21.339Z,17.70
2023-04-05T13:00:45.782Z,16.73
2023-04-05T13:05:58.935Z,13.77
2023-04-05T13:10:09.561Z,16.33
2023-04-05T13:14:19.115Z,15.73
2023-04-05T13:18:28.681Z,18.40
2023-04-05T13:22:41.575Z,13.63
2023-04-05T13:26:50.842Z,13.30
2023-04-05T13:31:00.270Z,14.93
2023-04-05T13:35:10.338Z,15.57
2023-04-05T13:39:21.947Z,13.33
2023-04-05T13:43:32.655Z,13.90
2023-04-05T13:47:43.866Z,12.73
2023-04-05T13:51:53.330Z,11.03
2023-04-05T13:56:04.086Z,11.20
2023-04-05T14:00:15.878Z,12.43
2023-04-05T14:04:25.287Z,11.03
2023-04-05T14:08:34.538Z,12.47
2023-04-05T14:12:48.774Z,8.93
2023-04-05T14:16:58.379Z,10.40
2023-04-05T14:21:09.275Z,10.53
2023-04-05T14:25:20.911Z,11.13
2023-04-05T14:29:32.533Z,10.40
2023-04-05T14:33:45.076Z,10.90
2023-04-05T14:37:57.613Z,9.73
2023-04-05T14:42:08.057Z,10.67
2023-04-05T14:46:20.278Z,11.13
2023-04-05T14:50:32.738Z,11.07
2023-04-05T14:54:42.441Z,12.63
2023-04-05T14:58:51.814Z,11.47
2023-04-05T15:03:03.934Z,12.43
2023-04-05T15:07:13.416Z,12.30
2023-04-05T15:11:23.329Z,11.77
2023-04-05T15:15:33.204Z,13.07
2023-04-05T15:19:44.549Z,12.43
2023-04-05T15:23:55.341Z,13.27
2023-04-05T15:28:07.030Z,11.63
2023-04-05T15:32:18.867Z,11.90
2023-04-05T15:36:30.485Z,11.90
2023-04-05T15:40:40.515Z,11.43
2023-04-05T15:44:49.967Z,10.17
2023-04-05T15:48:59.579Z,9.50
2023-04-05T15:53:11.693Z,9.30
2023-04-05T15:57:21.090Z,11.53
2023-04-05T16:01:32.493Z,9.47
2023-04-05T16:05:44.749Z,9.53
2023-04-05T16:09:55.931Z,8.47
2023-04-05T16:14:14.076Z,8.37
2023-04-05T16:18:30.457Z,8.13
2023-04-05T16:22:41.970Z,8.13
2023-04-05T16:27:24.490Z,7.37
2023-04-05T16:31:49.199Z,7.60
2023-04-05T16:36:25.039Z,8.10
2023-04-05T16:40:52.419Z,7.77
2023-04-05T16:49:42.759Z,6.97
2023-04-05T16:54:01.865Z,8.33
2023-04-05T16:58:11.595Z,7.90
2023-04-05T17:02:22.722Z,9.40
2023-04-05T17:06:54.044Z,9.13
2023-04-05T17:11:03.357Z,8.07
2023-04-05T17:15:13.507Z,8.90
2023-04-05T17:19:23.974Z,7.77
2023-04-05T17:23:35.407Z,7.23
2023-04-05T17:55:51.634Z,8.67
2023-04-05T18:00:00.705Z,8.07
2023-04-05T18:04:12.416Z,7.67
2023-04-05T18:08:22.922Z,8.47
2023-04-05T18:12:34.967Z,9.23
2023-04-05T18:16:43.954Z,6.73
2023-04-05T18:20:53.651Z,6.20
2023-04-05T18:25:03.131Z,6.17
2023-04-05T18:29:18.744Z,6.07
2023-04-05T18:33:29.077Z,5.00
2023-04-05T18:37:38.471Z,4.57
2023-04-05T18:41:47.455Z,3.83
2023-04-05T18:45:58.017Z,3.80
2023-04-05T18:50:10.194Z,3.73
2023-04-05T18:54:21.462Z,3.60
2023-04-05T18:58:30.619Z,3.27
2023-04-05T19:02:41.502Z,3.70
2023-04-05T19:06:53.158Z,3.73
2023-04-05T19:11:02.087Z,3.43
2023-04-05T19:15:12.059Z,3.03
2023-04-05T19:19:22.494Z,3.20
2023-04-05T19:23:31.684Z,4.30
2023-04-05T19:27:41.541Z,6.67
2023-04-05T19:31:51.999Z,10.90
2023-04-05T19:36:03.147Z,4.00
2023-04-05T19:40:12.695Z,3.43
2023-04-05T19:44:38.738Z,2.00
2023-04-05T19:48:47.970Z,2.40
2023-04-05T19:52:58.407Z,1.60
2023-04-05T19:57:10.004Z,2.03
2023-04-05T20:01:33.793Z,1.60
2023-04-05T20:06:00.045Z,1.93
2023-04-05T20:10:17.030Z,2.57
2023-04-05T20:14:30.757Z,2.67
2023-04-05T20:18:40.813Z,2.37
2023-04-05T20:22:50.144Z,2.83
2023-04-05T20:27:01.419Z,2.20
2023-04-05T20:31:11.752Z,2.07
2023-04-05T20:35:33.773Z,2.30
2023-04-05T20:39:43.624Z,1.60
2023-04-05T20:43:54.523Z,1.57
2023-04-05T20:48:03.624Z,2.90
2023-04-05T20:52:12.666Z,1.73
2023-04-05T20:56:21.720Z,2.17
2023-04-05T21:00:32.581Z,2.20
2023-04-05T21:04:41.926Z,2.87
2023-04-05T21:08:51.100Z,2.30
2023-04-05T21:13:00.733Z,2.53
2023-04-05T21:17:11.212Z,3.10
2023-04-05T21:21:20.259Z,2.87
2023-04-05T21:25:29.177Z,3.53
2023-04-05T21:29:38.197Z,4.47
2023-04-05T21:33:48.575Z,3.20
2023-04-05T21:37:57.692Z,4.43
2023-04-05T21:42:06.661Z,3.17
2023-04-05T21:46:16.857Z,2.60
2023-04-05T21:50:28.398Z,3.40
2023-04-05T21:54:37.296Z,2.60
2023-04-05T21:58:46.507Z,3.97
2023-04-05T22:02:55.372Z,2.93
2023-04-05T22:07:05.846Z,3.60
2023-04-05T22:11:14.886Z,4.53
2023-04-05T22:16:13.348Z,4.10
2023-04-05T22:25:44.702Z,3.97
2023-04-05T22:30:28.899Z,4.33
2023-04-05T22:35:39.800Z,4.47
2023-04-05T22:40:27.677Z,4.73
2023-04-05T22:44:42.834Z,5.63
2023-04-05T22:48:51.858Z,4.37
2023-04-05T22:53:01.146Z,4.50
2023-04-05T22:57:11.381Z,4.47
2023-04-05T23:01:22.562Z,4.83
2023-04-05T23:05:32.075Z,5.07
2023-04-05T23:09:41.039Z,5.07
2023-04-05T23:13:51.701Z,7.00
2023-04-05T23:18:02.315Z,5.63
2023-04-05T23:22:12.170Z,5.63
2023-04-05T23:26:21.326Z,5.73
2023-04-05T23:30:31.424Z,6.40
2023-04-05T23:34:41.999Z,5.80
2023-04-05T23:38:51.496Z,6.53
2023-04-05T23:43:00.948Z,7.40
2023-04-05T23:47:10.282Z,6.10
2023-04-05T23:51:20.786Z,8.47
2023-04-05T23:55:31.142Z,6.37
2023-04-05T23:59:41.625Z,7.00
